Laverock, Pennsylvania
Current Conditions -  °F | °C
As of 4:55 PM on Friday 24 Oct 2014 (Local Time) from KLOM Reporting Station
Clear Clear  
Wind Chill: 20°   Ceiling: Unl
Heat Index: 20°   Visibility: 10mi
Dew Point:   Wind: 5mph
Humidity: 43%   Direction: 330°NNW
Pressure: 29.8"   Gusts: NA
Location:  40.1012°N, 75.1722°W
Report Text: KLOM 242055Z AUTO 33004KT 10SM CLR 20/07 A2980 RMK AO1
Loading
Personal Weather Stations






























Interactive Weather Map
Tropical Storm Tracking
New forecast layout! Learn more

10-Day Weather Forecast

Advertisements
Track Severe Weather on mobile